Time;durP1;ratioP1;P1;durP2;ratioP2;P2;SDS_P1;SDS_P2;PMS_P1;PMS_P2;Temp;Humidity;BMP_temperature;BMP_pressure;BME280_temperature;BME280_humidity;BME280_pressure;Samples;Min_cycle;Max_cycle;Signal;HPM_P1;HPM_P2
2023/01/29 00:00:33;;;;;;;6.57;3.22;;;;;;;;;;4294255;33;20097;-70
2023/01/29 00:03:20;;;;;;;7.62;3.17;;;;;;;;;;4293431;33;20080;-71
2023/01/29 00:05:46;;;;;;;9.27;3.37;;;;;;;;;;4287379;33;20034;-71
2023/01/29 00:08:13;;;;;;;3.67;3.33;;;;;;;;;;4309338;33;20082;-70
2023/01/29 00:10:46;;;;;;;6.12;3.92;;;;;;;;;;4284990;33;20048;-70
2023/01/29 00:13:13;;;;;;;8.40;3.53;;;;;;;;;;4309968;33;20056;-70
2023/01/29 00:15:38;;;;;;;6.50;4.28;;;;;;;;;;4310694;33;20063;-70
2023/01/29 00:18:05;;;;;;;8.18;3.37;;;;;;;;;;4308318;33;20045;-70
2023/01/29 00:20:31;;;;;;;4.35;3.75;;;;;;;;;;4310449;33;20057;-70
2023/01/29 00:22:57;;;;;;;11.38;3.92;;;;;;;;;;4310560;33;20090;-70
2023/01/29 00:25:30;;;;;;;4.53;3.45;;;;;;;;;;4310809;33;20176;-70
2023/01/29 00:27:57;;;;;;;4.65;3.55;;;;;;;;;;4308490;33;20061;-70
2023/01/29 00:30:23;;;;;;;6.07;3.90;;;;;;;;;;4310448;33;20849;-70
2023/01/29 00:32:49;;;;;;;6.93;3.67;;;;;;;;;;4311090;33;20082;-70
2023/01/29 00:35:16;;;;;;;5.90;3.37;;;;;;;;;;4309809;33;20037;-70
2023/01/29 00:37:42;;;;;;;4.82;4.15;;;;;;;;;;4300440;33;20033;-71
2023/01/29 00:40:08;;;;;;;5.95;3.15;;;;;;;;;;4294809;33;20029;-70
2023/01/29 00:45:19;;;;;;;4.97;3.90;;;;;;;;;;4296620;33;20051;-71
2023/01/29 00:47:46;;;;;;;3.42;3.08;;;;;;;;;;4295761;33;20055;-71
2023/01/29 00:50:12;;;;;;;7.30;3.97;;;;;;;;;;4294872;33;20021;-71
2023/01/29 00:52:42;;;;;;;4.95;3.30;;;;;;;;;;4296050;33;20057;-71
2023/01/29 00:55:09;;;;;;;8.20;4.35;;;;;;;;;;4296474;33;20025;-70
2023/01/29 00:57:36;;;;;;;5.18;3.20;;;;;;;;;;4296315;33;20367;-70
2023/01/29 03:00:12;;;;;;;5.37;4.10;;;;;;;;;;5020958;28;20071;31
2023/01/29 03:03:00;;;;;;;10.93;5.55;;;;;;;;;;4256917;33;20156;-70
2023/01/29 03:05:29;;;;;;;13.62;4.32;;;;;;;;;;4266042;33;20527;-71
2023/01/29 03:08:00;;;;;;;16.10;5.10;;;;;;;;;;4237381;33;20198;-70
2023/01/29 03:10:49;;;;;;;12.68;5.95;;;;;;;;;;4236554;33;20031;-70
2023/01/29 03:13:29;;;;;;;8.15;5.22;;;;;;;;;;4237728;33;20050;-70
2023/01/29 03:16:00;;;;;;;8.05;4.25;;;;;;;;;;4236743;33;20450;-70
2023/01/29 03:18:33;;;;;;;8.70;5.20;;;;;;;;;;4236300;33;20030;-71
2023/01/29 03:21:02;;;;;;;10.27;5.18;;;;;;;;;;4236280;33;20031;-71
2023/01/29 03:32:06;;;;;;;8.50;5.12;;;;;;;;;;4237607;33;20797;-70
2023/01/29 03:34:40;;;;;;;8.75;5.12;;;;;;;;;;4249172;33;20405;-71
2023/01/29 03:37:13;;;;;;;9.73;5.20;;;;;;;;;;4221236;33;20469;-70
2023/01/29 03:39:40;;;;;;;7.57;4.65;;;;;;;;;;4222989;34;20072;-71
2023/01/29 03:42:24;;;;;;;9.70;5.22;;;;;;;;;;4222895;34;20039;-70
2023/01/29 03:45:07;;;;;;;8.38;5.28;;;;;;;;;;4230278;33;20072;-71
2023/01/29 03:47:42;;;;;;;15.38;5.53;;;;;;;;;;4235756;33;20446;-70
2023/01/29 03:50:16;;;;;;;9.23;4.72;;;;;;;;;;4237419;33;20200;-70
2023/01/29 03:52:50;;;;;;;7.85;5.15;;;;;;;;;;4245254;33;20042;-71
2023/01/29 03:55:31;;;;;;;13.45;6.32;;;;;;;;;;4251365;33;20382;-71
2023/01/29 03:58:03;;;;;;;10.15;4.80;;;;;;;;;;4251368;33;20042;-70
2023/01/29 04:00:37;;;;;;;12.00;5.65;;;;;;;;;;4250713;33;20045;-70
2023/01/29 04:03:10;;;;;;;9.95;4.50;;;;;;;;;;4250895;33;20045;-70
2023/01/29 04:05:41;;;;;;;10.32;4.95;;;;;;;;;;4250997;33;20034;-71
2023/01/29 04:08:10;;;;;;;7.73;5.17;;;;;;;;;;4250653;33;20060;-70
2023/01/29 04:10:37;;;;;;;10.82;4.78;;;;;;;;;;4253963;33;20170;-70
2023/01/29 04:13:06;;;;;;;11.65;5.10;;;;;;;;;;4253992;33;20060;-70
2023/01/29 04:15:44;;;;;;;10.25;5.78;;;;;;;;;;4253903;33;20099;-70
2023/01/29 04:18:11;;;;;;;9.52;5.18;;;;;;;;;;4257514;33;20145;-69
2023/01/29 04:20:39;;;;;;;5.37;3.33;;;;;;;;;;4274015;33;20058;-70
2023/01/29 04:23:06;;;;;;;11.02;5.65;;;;;;;;;;4284239;33;20037;-71
2023/01/29 04:25:42;;;;;;;11.95;5.72;;;;;;;;;;4284669;33;20046;-71
2023/01/29 04:28:15;;;;;;;6.20;4.30;;;;;;;;;;4282846;33;20371;-72
2023/01/29 04:30:45;;;;;;;10.52;4.80;;;;;;;;;;4270020;33;20068;-71
2023/01/29 04:36:05;;;;;;;9.25;5.45;;;;;;;;;;4268063;33;20046;-70
2023/01/29 04:38:41;;;;;;;10.85;5.90;;;;;;;;;;4257950;33;20097;-70
2023/01/29 04:41:15;;;;;;;7.95;4.62;;;;;;;;;;4283499;33;20360;-70
2023/01/29 04:43:49;;;;;;;10.23;6.05;;;;;;;;;;4282925;33;20041;-70
2023/01/29 04:46:17;;;;;;;13.45;7.15;;;;;;;;;;4276492;33;20076;-71
2023/01/29 04:49:00;;;;;;;9.82;5.78;;;;;;;;;;4269364;33;20064;-71
2023/01/29 04:51:44;;;;;;;9.75;5.57;;;;;;;;;;4253699;33;20045;-71
2023/01/29 04:54:15;;;;;;;10.15;6.18;;;;;;;;;;4257421;33;20046;-70
2023/01/29 04:56:47;;;;;;;6.62;3.72;;;;;;;;;;4276285;33;20057;-71
2023/01/29 04:59:17;;;;;;;18.37;6.47;;;;;;;;;;4271858;33;20062;-71
2023/01/29 05:01:43;;;;;;;15.80;6.78;;;;;;;;;;4272420;33;20103;-71
2023/01/29 05:04:12;;;;;;;16.25;6.15;;;;;;;;;;4262820;33;20067;-71
2023/01/29 05:06:38;;;;;;;10.52;4.93;;;;;;;;;;4265335;33;20131;-71
2023/01/29 05:09:05;;;;;;;15.43;6.20;;;;;;;;;;4266526;33;20353;-71
2023/01/29 05:11:31;;;;;;;7.90;4.07;;;;;;;;;;4254838;33;20492;-71
2023/01/29 05:14:00;;;;;;;11.68;5.80;;;;;;;;;;4223362;33;20051;-70
2023/01/29 05:16:28;;;;;;;12.02;5.05;;;;;;;;;;4216488;33;20061;-69
2023/01/29 05:18:54;;;;;;;19.55;7.10;;;;;;;;;;4219851;33;20028;-71
2023/01/29 05:21:21;;;;;;;9.65;5.50;;;;;;;;;;4218847;33;20253;-69
2023/01/29 05:24:06;;;;;;;13.60;6.90;;;;;;;;;;4210744;34;20047;-70
2023/01/29 05:29:18;;;;;;;13.80;5.43;;;;;;;;;;4224542;33;20065;-70
2023/01/29 05:31:44;;;;;;;11.98;5.40;;;;;;;;;;4209909;34;20028;-70
2023/01/29 05:34:10;;;;;;;14.55;6.62;;;;;;;;;;4210796;34;20367;-70
2023/01/29 05:36:36;;;;;;;12.77;5.82;;;;;;;;;;4195035;34;20146;-71
2023/01/29 05:39:02;;;;;;;14.40;5.47;;;;;;;;;;4196577;34;20446;-71
2023/01/29 05:41:28;;;;;;;12.25;5.62;;;;;;;;;;4196364;34;20531;-71
2023/01/29 05:43:55;;;;;;;11.95;6.03;;;;;;;;;;4197646;34;20070;-71
2023/01/29 05:46:21;;;;;;;9.45;5.35;;;;;;;;;;4231592;33;20042;-71
2023/01/29 05:48:47;;;;;;;17.02;6.70;;;;;;;;;;4236198;33;20377;-71
2023/01/29 05:51:13;;;;;;;11.85;6.32;;;;;;;;;;4237889;33;20088;-71
2023/01/29 05:53:39;;;;;;;10.93;6.03;;;;;;;;;;4236014;33;20203;-71
2023/01/29 05:56:05;;;;;;;10.18;5.62;;;;;;;;;;4238774;33;20039;-71
2023/01/29 05:58:32;;;;;;;12.85;6.25;;;;;;;;;;4238451;33;20050;-70
2023/01/29 06:01:06;;;;;;;7.62;4.18;;;;;;;;;;4236982;33;20042;-71
2023/01/29 06:03:33;;;;;;;15.43;6.40;;;;;;;;;;4249956;33;20104;-71
2023/01/29 06:06:00;;;;;;;15.38;5.32;;;;;;;;;;4248820;33;20093;-71
2023/01/29 06:08:26;;;;;;;10.70;5.07;;;;;;;;;;4241866;33;20068;-71
2023/01/29 06:10:52;;;;;;;10.13;6.03;;;;;;;;;;4250293;33;20046;-71
2023/01/29 06:13:19;;;;;;;13.20;5.20;;;;;;;;;;4265935;33;20093;-70
2023/01/29 06:15:44;;;;;;;15.70;5.87;;;;;;;;;;4256338;33;20042;-70
2023/01/29 06:18:11;;;;;;;10.18;5.62;;;;;;;;;;4251813;33;20046;-70
2023/01/29 06:20:37;;;;;;;13.38;7.03;;;;;;;;;;4262101;33;20072;-70
2023/01/29 06:23:03;;;;;;;15.32;6.30;;;;;;;;;;4237184;33;20043;-70
2023/01/29 06:25:29;;;;;;;14.10;5.07;;;;;;;;;;4237741;33;20101;-69
2023/01/29 06:27:55;;;;;;;15.27;6.80;;;;;;;;;;4234964;33;20054;-70
2023/01/29 06:30:21;;;;;;;18.20;6.93;;;;;;;;;;4232979;33;20039;-71
2023/01/29 06:32:48;;;;;;;12.13;6.00;;;;;;;;;;4215239;34;20044;-70
2023/01/29 06:35:14;;;;;;;20.50;5.97;;;;;;;;;;4215373;34;20361;-71
2023/01/29 06:37:40;;;;;;;10.18;5.75;;;;;;;;;;4217883;33;20091;-70
2023/01/29 06:40:06;;;;;;;12.35;6.15;;;;;;;;;;4222372;34;20043;-70
2023/01/29 06:42:35;;;;;;;10.73;6.03;;;;;;;;;;4223311;34;20053;-70
2023/01/29 06:45:01;;;;;;;6.25;4.55;;;;;;;;;;4210984;34;20026;-71
2023/01/29 06:47:28;;;;;;;9.55;5.45;;;;;;;;;;4204437;34;20420;-71
2023/01/29 06:49:54;;;;;;;11.10;4.57;;;;;;;;;;4201816;34;20140;-71
2023/01/29 06:52:20;;;;;;;19.60;6.57;;;;;;;;;;4203083;34;20044;-71
2023/01/29 06:54:46;;;;;;;8.15;5.28;;;;;;;;;;4202529;34;20047;-71
2023/01/29 06:57:12;;;;;;;11.80;5.70;;;;;;;;;;4208055;34;20086;-71
2023/01/29 06:59:38;;;;;;;8.05;5.47;;;;;;;;;;4203536;34;20119;-71
2023/01/29 07:02:05;;;;;;;8.40;4.22;;;;;;;;;;4204775;34;20047;-71
2023/01/29 07:04:32;;;;;;;8.32;5.90;;;;;;;;;;4209067;34;20051;-71
2023/01/29 07:06:58;;;;;;;7.10;4.40;;;;;;;;;;4228749;33;20026;-70
2023/01/29 07:09:24;;;;;;;12.80;5.75;;;;;;;;;;4235700;33;20031;-70
2023/01/29 07:11:51;;;;;;;12.20;5.47;;;;;;;;;;4235968;33;20062;-69
2023/01/29 07:14:17;;;;;;;10.75;5.82;;;;;;;;;;4233588;33;20329;-70
2023/01/29 07:16:43;;;;;;;6.60;4.65;;;;;;;;;;4236149;33;20828;-70
2023/01/29 07:19:09;;;;;;;10.65;5.47;;;;;;;;;;4256324;33;20049;-70
2023/01/29 07:21:36;;;;;;;8.80;4.35;;;;;;;;;;4265329;33;20115;-70
2023/01/29 07:24:02;;;;;;;4.32;2.92;;;;;;;;;;4267480;33;20042;-70
2023/01/29 07:26:28;;;;;;;8.93;4.68;;;;;;;;;;4265472;33;20067;-70
2023/01/29 07:28:54;;;;;;;11.63;4.62;;;;;;;;;;4273505;33;20089;-70
2023/01/29 07:31:21;;;;;;;6.82;4.00;;;;;;;;;;4268598;33;20046;-70
2023/01/29 07:33:47;;;;;;;9.10;4.00;;;;;;;;;;4263742;33;20058;-70
2023/01/29 07:36:14;;;;;;;12.43;5.68;;;;;;;;;;4259954;33;20442;-70
2023/01/29 07:38:40;;;;;;;8.90;4.50;;;;;;;;;;4260364;33;20084;-71
2023/01/29 07:41:09;;;;;;;7.35;4.00;;;;;;;;;;4260074;33;20113;-70
2023/01/29 07:43:35;;;;;;;6.70;4.00;;;;;;;;;;4262108;33;20055;-70
2023/01/29 07:46:03;;;;;;;7.53;4.10;;;;;;;;;;4269339;33;20057;-70
2023/01/29 07:48:34;;;;;;;10.67;5.80;;;;;;;;;;4257762;33;20104;-70
2023/01/29 07:51:00;;;;;;;8.00;4.03;;;;;;;;;;4258979;33;20066;-70
2023/01/29 07:53:27;;;;;;;7.30;3.53;;;;;;;;;;4251783;33;20042;-69
2023/01/29 07:55:53;;;;;;;5.87;2.47;;;;;;;;;;4253496;33;20189;-70
2023/01/29 07:58:19;;;;;;;10.65;4.78;;;;;;;;;;4252243;33;20439;-71
2023/01/29 08:00:46;;;;;;;6.72;3.45;;;;;;;;;;4251208;33;20485;-71
2023/01/29 08:03:15;;;;;;;10.85;4.65;;;;;;;;;;4251430;33;20034;-71
2023/01/29 08:05:42;;;;;;;6.70;3.20;;;;;;;;;;4251205;33;20070;-73
2023/01/29 08:08:13;;;;;;;8.48;4.15;;;;;;;;;;4252577;33;20030;-72
2023/01/29 08:10:41;;;;;;;5.95;3.85;;;;;;;;;;4252374;33;20350;-71
2023/01/29 08:13:08;;;;;;;14.18;4.75;;;;;;;;;;4253048;33;20376;-72
2023/01/29 08:15:35;;;;;;;8.43;4.03;;;;;;;;;;4250659;33;20050;-72
2023/01/29 08:18:02;;;;;;;10.50;4.50;;;;;;;;;;4247297;33;20038;-71
2023/01/29 08:20:29;;;;;;;6.00;3.53;;;;;;;;;;4253119;33;20054;-71
2023/01/29 08:23:00;;;;;;;8.73;4.47;;;;;;;;;;4251318;33;20514;-72
2023/01/29 08:25:26;;;;;;;9.48;4.03;;;;;;;;;;4257135;33;20463;-72
2023/01/29 08:27:52;;;;;;;5.97;3.60;;;;;;;;;;4236649;33;20073;-72
2023/01/29 08:30:19;;;;;;;4.12;2.40;;;;;;;;;;4238791;33;20052;-72
2023/01/29 08:32:45;;;;;;;10.48;3.65;;;;;;;;;;4237684;33;20064;-72
2023/01/29 08:35:12;;;;;;;6.90;3.03;;;;;;;;;;4236966;33;20354;-72
2023/01/29 08:37:38;;;;;;;8.23;4.07;;;;;;;;;;4236576;33;20147;-69
2023/01/29 08:40:05;;;;;;;9.35;3.55;;;;;;;;;;4250670;33;20072;-71
2023/01/29 08:42:31;;;;;;;4.45;3.12;;;;;;;;;;4252176;33;20050;-71
2023/01/29 08:44:57;;;;;;;8.73;3.78;;;;;;;;;;4245858;33;20062;-71
2023/01/29 08:47:23;;;;;;;9.73;4.05;;;;;;;;;;4248665;33;20467;-71
2023/01/29 08:49:50;;;;;;;10.30;5.00;;;;;;;;;;4252088;33;20199;-71
2023/01/29 08:52:16;;;;;;;11.63;4.37;;;;;;;;;;4247045;33;20089;-71
2023/01/29 08:54:42;;;;;;;7.00;4.32;;;;;;;;;;4252494;33;20448;-72
2023/01/29 08:57:09;;;;;;;5.57;3.80;;;;;;;;;;4246041;33;20076;-72
2023/01/29 08:59:35;;;;;;;6.82;4.07;;;;;;;;;;4274676;33;20083;-71
2023/01/29 09:02:02;;;;;;;8.13;4.10;;;;;;;;;;4278919;33;20059;-72
2023/01/29 09:04:28;;;;;;;9.45;3.95;;;;;;;;;;4275282;33;20309;-71
2023/01/29 09:06:54;;;;;;;10.07;3.87;;;;;;;;;;4273770;33;20063;-70
2023/01/29 09:09:22;;;;;;;4.43;3.03;;;;;;;;;;4276667;33;20045;-70
2023/01/29 09:11:48;;;;;;;10.80;4.55;;;;;;;;;;4265827;33;20075;-72
2023/01/29 09:14:14;;;;;;;11.68;4.25;;;;;;;;;;4250041;33;20050;-73
2023/01/29 09:16:40;;;;;;;9.57;4.37;;;;;;;;;;4253081;33;20053;-71
2023/01/29 09:19:07;;;;;;;6.55;4.00;;;;;;;;;;4256302;33;20361;-70
2023/01/29 09:21:33;;;;;;;6.03;3.15;;;;;;;;;;4252749;33;20076;-70
2023/01/29 09:24:00;;;;;;;9.00;4.70;;;;;;;;;;4254197;33;20062;-71
2023/01/29 09:26:26;;;;;;;7.68;4.50;;;;;;;;;;4256619;33;20094;-71
2023/01/29 09:28:52;;;;;;;16.00;5.18;;;;;;;;;;4257520;33;20222;-71
2023/01/29 09:31:18;;;;;;;8.20;4.18;;;;;;;;;;4255074;33;20042;-71
2023/01/29 09:33:44;;;;;;;14.43;4.90;;;;;;;;;;4252064;33;20051;-71
2023/01/29 09:36:10;;;;;;;9.57;5.00;;;;;;;;;;4248436;33;20062;-71
2023/01/29 09:38:37;;;;;;;10.73;5.35;;;;;;;;;;4243036;33;20415;-72
2023/01/29 09:41:14;;;;;;;10.18;6.00;;;;;;;;;;4248528;33;20050;-70
2023/01/29 09:43:48;;;;;;;10.35;5.43;;;;;;;;;;4248508;33;20073;-71
2023/01/29 09:46:14;;;;;;;13.90;5.75;;;;;;;;;;4227587;33;20050;-71
2023/01/29 09:48:46;;;;;;;;;;;;;;;;;;4230140;33;20062;-69
2023/01/29 09:51:25;;;;;;;14.07;6.43;;;;;;;;;;4234982;33;19938;-71
2023/01/29 09:53:56;;;;;;;9.00;4.62;;;;;;;;;;4238556;33;20096;-70
2023/01/29 09:56:27;;;;;;;8.60;3.58;;;;;;;;;;4237223;33;20065;-70
2023/01/29 09:58:56;;;;;;;10.00;6.03;;;;;;;;;;4230175;33;20072;-69
2023/01/29 10:01:35;;;;;;;9.23;4.43;;;;;;;;;;4238364;33;20046;-71
2023/01/29 10:04:17;;;;;;;10.60;5.72;;;;;;;;;;4237102;33;20027;-71
2023/01/29 10:06:52;;;;;;;9.80;4.03;;;;;;;;;;4238147;33;20068;-70
2023/01/29 10:09:18;;;;;;;14.07;6.87;;;;;;;;;;4238256;33;20329;-70
2023/01/29 10:11:51;;;;;;;9.68;5.65;;;;;;;;;;4236012;33;20039;-70
2023/01/29 10:14:18;;;;;;;6.95;4.82;;;;;;;;;;4251060;33;21022;-71
2023/01/29 10:16:51;;;;;;;10.27;6.22;;;;;;;;;;4252026;33;20071;-71
2023/01/29 10:19:17;;;;;;;7.57;5.22;;;;;;;;;;4245677;33;20042;-71
2023/01/29 10:21:56;;;;;;;14.60;5.95;;;;;;;;;;4250036;33;20084;-71
2023/01/29 10:24:34;;;;;;;13.00;6.40;;;;;;;;;;4254600;33;20437;-71
2023/01/29 10:27:02;;;;;;;10.52;5.35;;;;;;;;;;4251256;33;20075;-69
2023/01/29 10:29:28;;;;;;;14.05;7.28;;;;;;;;;;4249932;33;20035;-70
2023/01/29 10:31:56;;;;;;;14.07;5.55;;;;;;;;;;4255731;33;20050;-69
2023/01/29 10:34:26;;;;;;;12.35;6.12;;;;;;;;;;4261175;33;20026;-69
2023/01/29 10:36:53;;;;;;;13.45;7.72;;;;;;;;;;4259289;33;20401;-70
2023/01/29 10:39:20;;;;;;;11.90;6.50;;;;;;;;;;4257024;33;20041;-70
2023/01/29 10:42:17;;;;;;;12.15;5.60;;;;;;;;;;4256580;33;20115;-71
2023/01/29 10:44:49;;;;;;;9.73;6.22;;;;;;;;;;4201693;34;20583;-70
2023/01/29 10:47:16;;;;;;;11.52;6.37;;;;;;;;;;4193301;34;20192;-70
2023/01/29 10:49:46;;;;;;;10.27;5.40;;;;;;;;;;4193589;34;20056;-71
2023/01/29 10:52:16;;;;;;;12.82;6.05;;;;;;;;;;4193665;34;20102;-68
2023/01/29 10:54:44;;;;;;;14.87;6.47;;;;;;;;;;4196633;34;20176;-69
2023/01/29 10:57:33;;;;;;;13.00;6.57;;;;;;;;;;4193088;34;20114;-70
2023/01/29 11:00:12;;;;;;;11.30;5.30;;;;;;;;;;4195727;34;20064;-68
2023/01/29 11:02:42;;;;;;;12.82;6.82;;;;;;;;;;4194439;34;20567;-71
2023/01/29 11:05:19;;;;;;;24.90;8.48;;;;;;;;;;4199204;34;20098;-70
2023/01/29 11:07:47;;;;;;;14.35;7.03;;;;;;;;;;4200838;34;20094;-70
2023/01/29 11:10:13;;;;;;;17.75;7.30;;;;;;;;;;4202003;34;20117;-69
2023/01/29 11:12:42;;;;;;;4.15;3.30;;;;;;;;;;4199684;34;20044;-69
2023/01/29 11:15:11;;;;;;;23.00;8.18;;;;;;;;;;4199674;34;20779;-70
2023/01/29 11:17:37;;;;;;;16.62;8.32;;;;;;;;;;4201363;34;20061;-70
2023/01/29 11:20:05;;;;;;;18.77;7.37;;;;;;;;;;4200517;34;20043;-70
2023/01/29 11:22:33;;;;;;;14.63;7.20;;;;;;;;;;4229019;33;20038;-70
2023/01/29 11:25:15;;;;;;;17.08;6.28;;;;;;;;;;4228144;33;20388;-70
2023/01/29 11:27:43;;;;;;;14.05;8.82;;;;;;;;;;4225567;33;20060;-69
2023/01/29 11:30:21;;;;;;;20.88;8.98;;;;;;;;;;4228872;33;20039;-70
2023/01/29 11:32:49;;;;;;;15.93;7.65;;;;;;;;;;4235629;33;20054;-69
2023/01/29 11:35:15;;;;;;;16.10;8.55;;;;;;;;;;4240580;33;20046;-69
2023/01/29 11:37:43;;;;;;;19.23;7.75;;;;;;;;;;4236443;33;20504;-68
2023/01/29 11:40:15;;;;;;;13.80;8.05;;;;;;;;;;4235551;33;20064;-70
2023/01/29 11:42:41;;;;;;;14.25;7.78;;;;;;;;;;4241154;33;20058;-70
2023/01/29 11:45:23;;;;;;;14.63;8.70;;;;;;;;;;4243744;33;20030;-69
2023/01/29 11:47:54;;;;;;;16.35;8.57;;;;;;;;;;4242534;33;20080;-70
2023/01/29 11:50:24;;;;;;;13.20;6.12;;;;;;;;;;4242489;33;20035;-70
2023/01/29 11:52:51;;;;;;;15.88;7.85;;;;;;;;;;4243369;33;20051;-70
2023/01/29 11:55:17;;;;;;;22.55;7.87;;;;;;;;;;4240664;33;20030;-70
2023/01/29 11:57:51;;;;;;;21.17;9.82;;;;;;;;;;4246089;33;20046;-70
2023/01/29 12:03:20;;;;;;;14.20;6.68;;;;;;;;;;4293092;33;20063;-70
2023/01/29 12:05:55;;;;;;;22.95;8.27;;;;;;;;;;4294121;33;20067;-70
2023/01/29 12:08:22;;;;;;;21.80;9.82;;;;;;;;;;4264715;33;20041;-70
2023/01/29 12:11:06;;;;;;;20.52;9.80;;;;;;;;;;4264906;33;20053;-70
2023/01/29 12:13:32;;;;;;;18.30;9.07;;;;;;;;;;4264054;33;20068;-70
2023/01/29 12:16:09;;;;;;;15.93;7.20;;;;;;;;;;4268573;33;20046;-69
2023/01/29 12:18:38;;;;;;;17.42;9.13;;;;;;;;;;4268891;33;20049;-70
2023/01/29 12:21:10;;;;;;;18.70;9.15;;;;;;;;;;4269790;33;20124;-71
2023/01/29 12:23:53;;;;;;;22.90;10.20;;;;;;;;;;4264369;33;20816;-71
2023/01/29 12:26:24;;;;;;;12.80;5.97;;;;;;;;;;4270166;33;20046;-70
2023/01/29 12:29:08;;;;;;;23.65;11.52;;;;;;;;;;4255198;33;20037;-70
2023/01/29 12:32:01;;;;;;;23.80;10.65;;;;;;;;;;4272745;33;20493;-70
2023/01/29 12:34:56;;;;;;;10.18;4.60;;;;;;;;;;4246273;33;20042;-70
2023/01/29 12:37:41;;;;;;;23.50;11.25;;;;;;;;;;4202424;33;20040;-70
2023/01/29 12:40:11;;;;;;;10.27;5.10;;;;;;;;;;4278375;33;20109;-70
2023/01/29 12:42:39;;;;;;;22.65;10.13;;;;;;;;;;4288626;33;20489;-70
2023/01/29 12:45:07;;;;;;;19.60;9.18;;;;;;;;;;4288730;33;20053;-71
2023/01/29 12:47:38;;;;;;;18.65;9.70;;;;;;;;;;4284265;33;20057;-70
2023/01/29 12:50:20;;;;;;;23.73;9.60;;;;;;;;;;4281661;33;20077;-70
2023/01/29 12:52:49;;;;;;;11.63;6.18;;;;;;;;;;4280375;33;20127;-70
2023/01/29 12:55:24;;;;;;;20.37;10.32;;;;;;;;;;4284051;33;20053;-71
2023/01/29 12:57:51;;;;;;;25.08;10.38;;;;;;;;;;4286451;33;20058;-71
2023/01/29 13:00:19;;;;;;;24.45;10.68;;;;;;;;;;4286343;33;20030;-70
2023/01/29 13:02:55;;;;;;;27.83;9.85;;;;;;;;;;4288347;33;21488;-70
2023/01/29 13:05:26;;;;;;;21.08;10.85;;;;;;;;;;4285184;33;20452;-71
2023/01/29 13:07:55;;;;;;;24.90;11.85;;;;;;;;;;4257952;33;20076;-71
2023/01/29 13:10:28;;;;;;;23.17;10.70;;;;;;;;;;4270787;33;20429;-70
2023/01/29 13:13:05;;;;;;;19.85;10.10;;;;;;;;;;4272778;33;20466;-68
2023/01/29 13:15:33;;;;;;;;;;;;;;;;;;4275004;33;20038;-69
2023/01/29 13:18:16;;;;;;;16.42;8.15;;;;;;;;;;4266558;33;19983;-69
2023/01/29 13:20:43;;;;;;;22.75;10.40;;;;;;;;;;4266588;33;20056;-69
2023/01/29 13:23:20;;;;;;;24.83;11.35;;;;;;;;;;4264365;33;20127;-71
2023/01/29 13:25:50;;;;;;;25.85;10.68;;;;;;;;;;4264316;33;20053;-70
2023/01/29 13:28:22;;;;;;;23.60;9.68;;;;;;;;;;4252472;33;20063;-69
2023/01/29 13:31:07;;;;;;;17.02;9.13;;;;;;;;;;4252131;33;20069;-69
2023/01/29 13:33:33;;;;;;;21.42;9.73;;;;;;;;;;4252716;33;20703;-69
2023/01/29 13:35:59;;;;;;;20.98;9.80;;;;;;;;;;4251100;33;20030;-69
2023/01/29 13:38:34;;;;;;;20.65;10.32;;;;;;;;;;4252602;33;20038;-70
2023/01/29 13:41:02;;;;;;;16.23;8.15;;;;;;;;;;4259303;33;20063;-73
2023/01/29 13:43:32;;;;;;;27.50;9.73;;;;;;;;;;4260891;33;20155;-71
2023/01/29 13:46:04;;;;;;;20.55;10.30;;;;;;;;;;4258267;33;20077;-70
2023/01/29 13:48:35;;;;;;;21.05;9.85;;;;;;;;;;4255551;33;20056;-71
2023/01/29 13:51:02;;;;;;;20.75;9.70;;;;;;;;;;4259230;33;20068;-72
2023/01/29 13:53:33;;;;;;;19.75;9.50;;;;;;;;;;4253460;33;20712;-71
2023/01/29 13:56:18;;;;;;;23.90;11.82;;;;;;;;;;4266595;33;20178;-71
2023/01/29 13:58:52;;;;;;;10.73;4.90;;;;;;;;;;4255768;33;20489;-73
2023/01/29 14:01:39;;;;;;;24.23;11.23;;;;;;;;;;4280329;33;20131;-72
2023/01/29 14:04:17;;;;;;;12.23;6.87;;;;;;;;;;4257294;33;20068;-71
2023/01/29 14:07:05;;;;;;;15.88;7.47;;;;;;;;;;4256853;33;20832;-72
2023/01/29 14:09:38;;;;;;;22.20;8.77;;;;;;;;;;4250257;33;20050;-72
2023/01/29 14:12:24;;;;;;;19.25;7.40;;;;;;;;;;4249890;33;20437;-71
2023/01/29 14:14:59;;;;;;;19.73;9.15;;;;;;;;;;4250705;33;20042;-71
2023/01/29 14:17:26;;;;;;;13.40;7.10;;;;;;;;;;4250821;33;20053;-72
2023/01/29 14:19:55;;;;;;;19.30;8.32;;;;;;;;;;4248278;33;20063;-72
2023/01/29 14:22:25;;;;;;;15.32;8.30;;;;;;;;;;4250675;33;20050;-72
2023/01/29 14:24:54;;;;;;;17.80;10.15;;;;;;;;;;4250339;33;20050;-72
2023/01/29 14:27:21;;;;;;;3.33;3.03;;;;;;;;;;4251976;33;20058;-72
2023/01/29 14:29:50;;;;;;;15.05;7.40;;;;;;;;;;4241486;33;20038;-73
2023/01/29 14:32:25;;;;;;;26.67;10.23;;;;;;;;;;4216718;33;20774;-72
2023/01/29 14:35:02;;;;;;;19.60;9.88;;;;;;;;;;4226973;33;20211;-72
2023/01/29 14:37:28;;;;;;;15.27;6.55;;;;;;;;;;4229643;33;20397;-72
2023/01/29 14:39:57;;;;;;;14.90;8.00;;;;;;;;;;4239337;33;20042;-72
2023/01/29 14:42:24;;;;;;;18.42;7.15;;;;;;;;;;4241449;33;20046;-72
2023/01/29 14:44:54;;;;;;;18.92;8.90;;;;;;;;;;4238807;33;20081;-72
2023/01/29 14:47:40;;;;;;;15.55;6.68;;;;;;;;;;4249714;33;20115;-73
2023/01/29 14:50:25;;;;;;;18.52;9.40;;;;;;;;;;4237813;33;20057;-72
2023/01/29 14:52:53;;;;;;;7.35;5.10;;;;;;;;;;4235738;33;20465;-72
2023/01/29 14:55:30;;;;;;;20.20;10.45;;;;;;;;;;4237226;33;20068;-72
2023/01/29 14:57:57;;;;;;;21.98;10.40;;;;;;;;;;4245077;33;20034;-72
2023/01/29 15:00:28;;;;;;;17.02;7.90;;;;;;;;;;4260911;33;20050;-73
2023/01/29 15:02:56;;;;;;;23.17;9.32;;;;;;;;;;4263381;33;20421;-72
2023/01/29 15:05:28;;;;;;;23.23;9.77;;;;;;;;;;4268944;33;20053;-72
2023/01/29 15:07:55;;;;;;;23.73;12.05;;;;;;;;;;4279306;33;20071;-71
2023/01/29 15:10:22;;;;;;;30.33;10.73;;;;;;;;;;4292171;33;20059;-72
2023/01/29 15:12:51;;;;;;;26.05;11.38;;;;;;;;;;4296138;33;20079;-72
2023/01/29 15:15:20;;;;;;;18.40;8.35;;;;;;;;;;4294994;33;20049;-71
2023/01/29 15:17:58;;;;;;;24.98;10.10;;;;;;;;;;4296718;33;20049;-71
2023/01/29 15:20:25;;;;;;;22.00;11.57;;;;;;;;;;4295924;33;20029;-71
2023/01/29 15:22:51;;;;;;;24.45;9.05;;;;;;;;;;4276205;33;20052;-72
2023/01/29 15:25:20;;;;;;;23.15;11.77;;;;;;;;;;4278682;33;20105;-72
2023/01/29 15:27:46;;;;;;;24.67;9.13;;;;;;;;;;4278741;33;20076;-72
2023/01/29 15:30:21;;;;;;;16.37;8.82;;;;;;;;;;4277551;33;20079;-72
2023/01/29 15:32:48;;;;;;;25.75;12.27;;;;;;;;;;4275806;33;20374;-72
2023/01/29 15:35:20;;;;;;;24.52;12.00;;;;;;;;;;4277676;33;20100;-73
2023/01/29 15:37:56;;;;;;;23.70;9.60;;;;;;;;;;4278681;33;20087;-72
2023/01/29 15:40:23;;;;;;;26.87;9.90;;;;;;;;;;4278947;33;20228;-71
2023/01/29 15:42:49;;;;;;;30.88;13.07;;;;;;;;;;4267144;33;20047;-72
2023/01/29 15:45:29;;;;;;;33.53;12.52;;;;;;;;;;4274019;33;20067;-71
2023/01/29 15:48:16;;;;;;;29.60;12.60;;;;;;;;;;4250964;33;20054;-73
2023/01/29 15:50:44;;;;;;;37.83;14.82;;;;;;;;;;4249296;33;20098;-72
2023/01/29 15:53:16;;;;;;;85.72;31.98;;;;;;;;;;4253449;33;20042;-71
2023/01/29 15:55:43;;;;;;;130.35;42.50;;;;;;;;;;4260114;33;20058;-73
2023/01/29 15:58:17;;;;;;;35.03;17.83;;;;;;;;;;4261579;33;20089;-73
2023/01/29 16:00:52;;;;;;;35.92;16.50;;;;;;;;;;4264164;33;20054;-72
2023/01/29 16:03:21;;;;;;;98.50;39.95;;;;;;;;;;4264954;33;20121;-72
2023/01/29 16:05:47;;;;;;;99.15;37.75;;;;;;;;;;4265222;33;20034;-73
2023/01/29 16:08:14;;;;;;;68.72;27.45;;;;;;;;;;4265500;33;20177;-72
2023/01/29 16:10:41;;;;;;;68.55;25.15;;;;;;;;;;4267055;33;20069;-72
2023/01/29 16:13:15;;;;;;;69.55;23.83;;;;;;;;;;4269903;33;20042;-72
2023/01/29 16:15:53;;;;;;;95.32;38.15;;;;;;;;;;4282723;33;20045;-71
2023/01/29 16:18:20;;;;;;;125.55;33.20;;;;;;;;;;4279959;33;20108;-72
2023/01/29 16:20:50;;;;;;;26.67;11.95;;;;;;;;;;4280920;33;20065;-72
2023/01/29 16:23:23;;;;;;;27.10;13.38;;;;;;;;;;4279525;33;20029;-72
2023/01/29 16:25:50;;;;;;;45.63;17.27;;;;;;;;;;4286277;33;20045;-72
2023/01/29 16:28:17;;;;;;;44.78;19.27;;;;;;;;;;4292278;33;20061;-71
2023/01/29 16:30:44;;;;;;;23.90;11.65;;;;;;;;;;4296892;33;20063;-72
2023/01/29 16:33:11;;;;;;;13.90;8.18;;;;;;;;;;4280778;33;20755;-73
2023/01/29 16:35:39;;;;;;;38.45;13.73;;;;;;;;;;4278619;33;20075;-72
2023/01/29 16:38:12;;;;;;;12.88;7.18;;;;;;;;;;4279003;33;20075;-73
2023/01/29 16:40:59;;;;;;;29.65;13.02;;;;;;;;;;4264654;33;20113;-73
2023/01/29 16:43:34;;;;;;;27.17;12.90;;;;;;;;;;4263135;33;20066;-73
2023/01/29 16:46:04;;;;;;;29.70;14.15;;;;;;;;;;4263723;33;20077;-73
2023/01/29 16:48:33;;;;;;;21.23;8.93;;;;;;;;;;4266392;33;20037;-73
2023/01/29 16:51:12;;;;;;;33.33;13.45;;;;;;;;;;4265950;33;20056;-71
2023/01/29 16:53:38;;;;;;;32.30;12.30;;;;;;;;;;4265141;33;20113;-73
2023/01/29 16:56:06;;;;;;;32.20;12.88;;;;;;;;;;4265861;33;20474;-74
2023/01/29 16:58:32;;;;;;;30.12;10.05;;;;;;;;;;4264429;33;20338;-74
2023/01/29 17:01:08;;;;;;;24.27;10.20;;;;;;;;;;4263566;33;20115;-73
2023/01/29 17:03:36;;;;;;;32.78;14.30;;;;;;;;;;4265642;33;20030;-73
2023/01/29 17:06:12;;;;;;;29.75;12.80;;;;;;;;;;4279071;33;20050;-73
2023/01/29 17:08:41;;;;;;;27.23;12.27;;;;;;;;;;4261909;33;20055;-72